Hampstead, NC (28443)

2:56 AM EDT on April 27, 2017 (GMT -0400)
Castle Bay | | Change Station
Active Advisory: Flood Advisory Active Notice: Flood Advisory

Elev 33 ft 34.40 °N, 77.70 °W | Updated 11 seconds ago

Clear
Clear
64.7 °F
Feels Like 64.7 °F
N
0.0
Wind Variable Wind from SSW
Gusts 4.0 mph

Today
High -- | Low -- °F
--% Chance of Precip.
Yesterday
High -- | Low -- °F
Precip. -- in
Pressure 29.89 in
Visibility 10.0 miles
Clouds Clear
Dew Point 62 °F
Humidity 90%
Rainfall 0.00 in
Snow Depth Not available.
6:25 AM 7:52 PM
New Moon, 1% visible
METAR KILM 270653Z 21005KT 10SM CLR 19/17 A2989 RMK AO2 SLP120 T01940172
Pressure 29.89 in
Visibility 10.0 miles
Clouds Clear
Dew Point 62 °F
Humidity 90%
Rainfall 0.00 in
Snow Depth Not available.
6:25 AM 7:52 PM
New Moon, 1% visible
METAR KILM 270653Z 21005KT 10SM CLR 19/17 A2989 RMK AO2 SLP120 T01940172

Get Your Daily Forecast Email!

Thanks for signing up!

Be on the lookout for a verification email in your inbox.

You'll start receiving severe weather alerts in your inbox..

×

10-Day Weather Forecast

Almanac

Astronomy

Apr. 27, 2017 Rise Set
Actual Time
Civil Twilight
Nautical Twilight
Astronomical Twilight
Moon
Length of Visible Light
Length of Day
Tomorrow will be .
, % of the Moon is Illuminated

Today's Extremes

State Highs State Lows

Community

WunderPhotos

WunderBlog® & News

Nearby

Air Quality

  Air Quality AQ Index Pollutant
Not available.

Snow Depth

Station Depth Elevation

Earthquake Activity

City Distance Mag. Time & Date
Minimum magnitude displayed is 2.5.

Coastal Water Temperatures

Place Temperature

Stations

Nearby Weather Stations

Station Location Temp. Windchill Dew Point Humidity Wind Precip. Elev Updated Type
                   

Watches & Warnings

Flood Advisory
Issued: 10:26 PM EDT Apr. 26, 2017 – National Weather Service

The flood advisory continues for
the Northeast Cape fear near Burgaw
* until Tuesday evening.
* At 9:00 PM Wednesday the stage was 7.7 feet.
* Advisory stage is 8.0 feet.
* Forecast... the river will rise to near 9.4 feet by Sunday morning.
* Impact... at 8.0 feet... water affects the lowest portions of River Bend Road and
river birch Road.


Lat... Lon 3472 7798 3472 7786 3460 7776 3445 7779
          3444 7788 3457 7788


04